Time;durP1;ratioP1;P1;durP2;ratioP2;P2;SDS_P1;SDS_P2;PMS_P1;PMS_P2;Temp;Humidity;BMP_temperature;BMP_pressure;BME280_temperature;BME280_humidity;BME280_pressure;Samples;Min_cycle;Max_cycle;Signal;HPM_P1;HPM_P2
2021/10/24 00:01:42;;;;;;;2.60;1.80;;;;;;;;;;4938453;29;20289;-87
2021/10/24 00:04:11;;;;;;;2.07;1.87;;;;;;;;;;4937716;29;20242;-87
2021/10/24 00:06:39;;;;;;;1.87;1.60;;;;;;;;;;4938300;29;20230;-88
2021/10/24 00:09:09;;;;;;;1.90;1.53;;;;;;;;;;4938475;29;20210;-88
2021/10/24 00:11:37;;;;;;;4.60;1.70;;;;;;;;;;4938124;29;20289;-86
2021/10/24 00:14:07;;;;;;;2.23;1.50;;;;;;;;;;4937800;29;20211;-85
2021/10/24 00:16:34;;;;;;;1.63;1.40;;;;;;;;;;4937828;29;20214;-86
2021/10/24 00:19:01;;;;;;;0.97;0.97;;;;;;;;;;4937650;29;20226;-86
2021/10/24 00:21:30;;;;;;;1.00;1.00;;;;;;;;;;4937641;29;20238;-86
2021/10/24 00:23:58;;;;;;;1.70;1.30;;;;;;;;;;4937506;29;20249;-85
2021/10/24 00:26:25;;;;;;;1.20;1.10;;;;;;;;;;4937123;29;20206;-86
2021/10/24 00:28:53;;;;;;;1.30;1.20;;;;;;;;;;4937844;29;20202;-87
2021/10/24 00:31:20;;;;;;;1.27;1.17;;;;;;;;;;4937439;29;20339;-87
2021/10/24 00:33:47;;;;;;;0.93;0.93;;;;;;;;;;4937525;29;20203;-86
2021/10/24 00:36:14;;;;;;;2.87;1.20;;;;;;;;;;4937430;29;20277;-86
2021/10/24 00:38:43;;;;;;;1.33;1.23;;;;;;;;;;4937379;29;20226;-88
2021/10/24 00:41:11;;;;;;;1.03;1.00;;;;;;;;;;4937809;29;20207;-87
2021/10/24 00:43:39;;;;;;;1.27;1.17;;;;;;;;;;4937875;29;20202;-87
2021/10/24 00:46:06;;;;;;;1.40;1.20;;;;;;;;;;4937729;29;20209;-88
2021/10/24 00:48:33;;;;;;;1.17;1.07;;;;;;;;;;4937341;29;20199;-87
2021/10/24 00:51:01;;;;;;;1.33;1.23;;;;;;;;;;4937259;29;20298;-87
2021/10/24 00:53:29;;;;;;;1.57;1.20;;;;;;;;;;4937400;29;20218;-86
2021/10/24 00:55:59;;;;;;;0.83;0.83;;;;;;;;;;4937545;29;20202;-86
2021/10/24 00:58:26;;;;;;;1.20;1.13;;;;;;;;;;4936714;29;20231;-87
2021/10/24 01:00:54;;;;;;;1.30;1.20;;;;;;;;;;4937166;29;20211;-87
2021/10/24 01:03:21;;;;;;;1.20;1.10;;;;;;;;;;4936385;29;20286;-86
2021/10/24 01:05:49;;;;;;;1.13;1.03;;;;;;;;;;4936739;29;20245;-86
2021/10/24 01:08:17;;;;;;;0.80;0.80;;;;;;;;;;4936595;29;20203;-86
2021/10/24 01:10:45;;;;;;;0.80;0.80;;;;;;;;;;4936609;29;20721;-86
2021/10/24 01:13:14;;;;;;;0.80;0.80;;;;;;;;;;4937056;29;20639;-85
2021/10/24 01:15:43;;;;;;;1.10;1.10;;;;;;;;;;4936332;29;20734;-86
2021/10/24 01:18:11;;;;;;;1.10;1.00;;;;;;;;;;4936319;29;20293;-86
2021/10/24 01:20:38;;;;;;;0.90;0.90;;;;;;;;;;4936609;29;20202;-86
2021/10/24 01:23:09;;;;;;;0.80;0.80;;;;;;;;;;4936467;29;20206;-86
2021/10/24 01:25:36;;;;;;;8.47;1.33;;;;;;;;;;4936504;29;20186;-86
2021/10/24 01:28:04;;;;;;;1.37;1.07;;;;;;;;;;4936527;29;20199;-86
2021/10/24 01:30:37;;;;;;;2.00;0.70;;;;;;;;;;4936042;29;20273;-85
2021/10/24 01:33:04;;;;;;;1.73;0.80;;;;;;;;;;4936181;29;20246;-85
2021/10/24 01:35:32;;;;;;;1.00;0.90;;;;;;;;;;4936250;29;20305;-85
2021/10/24 01:37:59;;;;;;;0.70;0.70;;;;;;;;;;4935994;29;20738;-85
2021/10/24 01:40:28;;;;;;;0.90;0.90;;;;;;;;;;4936343;29;20324;-86
2021/10/24 01:42:57;;;;;;;1.23;0.97;;;;;;;;;;4935783;29;20214;-86
2021/10/24 01:45:27;;;;;;;2.23;1.07;;;;;;;;;;4936561;29;20203;-87
2021/10/24 01:47:54;;;;;;;1.00;1.00;;;;;;;;;;4936436;29;20213;-86
2021/10/24 01:50:22;;;;;;;0.70;0.70;;;;;;;;;;4936253;29;20631;-87
2021/10/24 01:52:49;;;;;;;0.97;0.80;;;;;;;;;;4936019;29;20707;-87
2021/10/24 01:55:17;;;;;;;1.17;0.90;;;;;;;;;;4935683;29;20202;-87
2021/10/24 01:57:47;;;;;;;1.13;0.67;;;;;;;;;;4936029;29;20651;-87
2021/10/24 02:00:16;;;;;;;0.70;0.60;;;;;;;;;;4935713;29;20321;-86
2021/10/24 02:02:44;;;;;;;0.70;0.70;;;;;;;;;;4935976;29;20289;-86
2021/10/24 02:05:11;;;;;;;0.80;0.80;;;;;;;;;;4935622;29;20208;-86
2021/10/24 02:07:39;;;;;;;0.63;0.63;;;;;;;;;;4936199;29;20232;-86
2021/10/24 02:10:08;;;;;;;0.87;0.87;;;;;;;;;;4935620;29;20237;-87
2021/10/24 02:12:36;;;;;;;0.60;0.53;;;;;;;;;;4935492;29;20202;-87
2021/10/24 02:15:07;;;;;;;0.70;0.63;;;;;;;;;;4935530;29;20638;-87
2021/10/24 02:17:34;;;;;;;1.07;0.97;;;;;;;;;;4935699;29;20286;-87
2021/10/24 02:20:02;;;;;;;0.70;0.70;;;;;;;;;;4935337;29;20301;-86
2021/10/24 02:22:29;;;;;;;1.07;0.83;;;;;;;;;;4935739;29;20289;-87
2021/10/24 02:24:57;;;;;;;0.53;0.53;;;;;;;;;;4935975;29;20225;-87
2021/10/24 02:27:24;;;;;;;0.80;0.80;;;;;;;;;;4935836;29;20261;-86
2021/10/24 02:29:52;;;;;;;0.93;0.93;;;;;;;;;;4935298;29;20239;-86
2021/10/24 02:32:21;;;;;;;1.27;0.90;;;;;;;;;;4935349;29;20202;-86
2021/10/24 02:34:49;;;;;;;1.57;0.70;;;;;;;;;;4935024;29;20202;-85
2021/10/24 02:37:16;;;;;;;2.20;1.30;;;;;;;;;;4935645;29;20206;-87
2021/10/24 02:39:43;;;;;;;1.67;1.43;;;;;;;;;;4935505;29;20258;-86
2021/10/24 02:42:20;;;;;;;1.17;1.07;;;;;;;;;;4935629;29;20203;-88
2021/10/24 02:44:47;;;;;;;1.97;1.10;;;;;;;;;;4935749;29;20206;-87
2021/10/24 02:47:17;;;;;;;1.00;1.00;;;;;;;;;;4935358;29;20296;-87
2021/10/24 02:49:46;;;;;;;0.90;0.90;;;;;;;;;;4935535;29;20258;-86
2021/10/24 02:52:13;;;;;;;1.33;0.97;;;;;;;;;;4935634;29;20211;-85
2021/10/24 02:54:41;;;;;;;0.87;0.87;;;;;;;;;;4935550;29;20285;-86
2021/10/24 02:57:08;;;;;;;1.07;1.07;;;;;;;;;;4935286;29;20636;-86
2021/10/24 02:59:36;;;;;;;1.63;1.53;;;;;;;;;;4935182;29;20317;-86
2021/10/24 03:02:04;;;;;;;0.90;0.90;;;;;;;;;;4934960;29;20198;-86
2021/10/24 03:04:31;;;;;;;2.20;1.50;;;;;;;;;;4934837;29;20202;-86
2021/10/24 03:07:00;;;;;;;0.77;0.77;;;;;;;;;;4934666;29;20742;-86
2021/10/24 03:09:28;;;;;;;1.13;0.90;;;;;;;;;;4934867;29;20202;-86
2021/10/24 03:11:55;;;;;;;1.97;1.83;;;;;;;;;;4935200;29;20218;-87
2021/10/24 03:14:23;;;;;;;1.63;1.53;;;;;;;;;;4935197;29;20277;-87
2021/10/24 03:16:50;;;;;;;1.43;1.17;;;;;;;;;;4934786;29;20284;-87
2021/10/24 03:19:17;;;;;;;1.90;1.10;;;;;;;;;;4934803;29;20281;-87
2021/10/24 03:21:44;;;;;;;1.70;0.90;;;;;;;;;;4934869;29;20203;-88
2021/10/24 03:24:14;;;;;;;2.33;0.97;;;;;;;;;;4935171;29;20209;-87
2021/10/24 03:26:41;;;;;;;0.70;0.70;;;;;;;;;;4936088;29;20674;-87
2021/10/24 03:29:08;;;;;;;0.97;0.97;;;;;;;;;;4938684;29;20195;-87
2021/10/24 03:31:36;;;;;;;0.87;0.87;;;;;;;;;;4938991;29;20221;-87
2021/10/24 03:34:03;;;;;;;0.97;0.97;;;;;;;;;;4938900;29;20199;-88
2021/10/24 03:36:31;;;;;;;1.87;1.70;;;;;;;;;;4939011;29;20221;-87
2021/10/24 03:38:58;;;;;;;1.63;1.30;;;;;;;;;;4938865;29;20207;-88
2021/10/24 03:41:27;;;;;;;2.67;1.60;;;;;;;;;;4939000;29;20213;-87
2021/10/24 03:43:54;;;;;;;3.03;1.40;;;;;;;;;;4938423;29;20290;-87
2021/10/24 03:46:21;;;;;;;1.27;1.10;;;;;;;;;;4938378;29;20269;-87
2021/10/24 03:48:49;;;;;;;2.50;2.40;;;;;;;;;;4938783;29;20206;-88
2021/10/24 03:51:16;;;;;;;4.67;4.27;;;;;;;;;;4938233;29;20218;-87
2021/10/24 03:53:43;;;;;;;27.20;20.13;;;;;;;;;;4938493;29;20203;-86
2021/10/24 03:56:11;;;;;;;24.43;16.47;;;;;;;;;;4938086;29;20253;-87
2021/10/24 03:58:39;;;;;;;3.13;2.87;;;;;;;;;;4938608;29;20252;-86
2021/10/24 04:01:07;;;;;;;19.10;17.07;;;;;;;;;;4937627;29;20230;-86
2021/10/24 04:03:35;;;;;;;27.53;24.83;;;;;;;;;;4938011;29;20195;-86
2021/10/24 04:06:03;;;;;;;25.43;23.13;;;;;;;;;;4937804;29;20667;-86
2021/10/24 04:08:31;;;;;;;8.47;7.87;;;;;;;;;;4937697;29;20202;-86
2021/10/24 04:10:58;;;;;;;14.37;13.33;;;;;;;;;;4937974;29;20655;-87
2021/10/24 04:13:25;;;;;;;14.50;13.50;;;;;;;;;;4937850;29;20234;-86
2021/10/24 04:15:54;;;;;;;6.00;5.50;;;;;;;;;;4937963;29;20207;-86
2021/10/24 04:18:21;;;;;;;3.57;3.27;;;;;;;;;;4937631;29;20207;-86
2021/10/24 04:20:49;;;;;;;1.90;1.80;;;;;;;;;;4937388;29;20226;-86
2021/10/24 04:23:16;;;;;;;3.77;3.47;;;;;;;;;;4937965;29;20210;-86
2021/10/24 04:25:44;;;;;;;2.20;2.10;;;;;;;;;;4937589;29;20742;-87
2021/10/24 04:28:12;;;;;;;2.17;1.03;;;;;;;;;;4937422;29;20202;-87
2021/10/24 04:30:40;;;;;;;0.97;0.93;;;;;;;;;;4937036;29;20325;-86
2021/10/24 04:33:08;;;;;;;2.13;2.03;;;;;;;;;;4937417;29;20215;-87
2021/10/24 04:35:36;;;;;;;2.33;2.17;;;;;;;;;;4937416;29;20214;-88
2021/10/24 04:38:03;;;;;;;3.80;3.47;;;;;;;;;;4938012;29;20647;-88
2021/10/24 04:40:31;;;;;;;7.10;6.47;;;;;;;;;;4937871;29;20234;-87
2021/10/24 04:42:58;;;;;;;8.70;6.90;;;;;;;;;;4937504;29;20246;-87
2021/10/24 04:45:25;;;;;;;6.80;6.13;;;;;;;;;;4937463;29;20198;-87
2021/10/24 04:47:53;;;;;;;2.27;2.10;;;;;;;;;;4937433;29;20206;-84
2021/10/24 04:50:22;;;;;;;1.70;1.60;;;;;;;;;;4937110;29;20289;-86
2021/10/24 04:52:49;;;;;;;1.27;1.17;;;;;;;;;;4937563;29;20238;-87
2021/10/24 04:55:16;;;;;;;2.93;2.00;;;;;;;;;;4937260;29;20202;-88
2021/10/24 04:57:44;;;;;;;2.53;2.33;;;;;;;;;;4937673;29;20230;-87
2021/10/24 05:00:12;;;;;;;2.63;2.43;;;;;;;;;;4937270;29;20226;-88
2021/10/24 05:02:40;;;;;;;3.47;2.60;;;;;;;;;;4937176;29;20254;-88
2021/10/24 05:05:07;;;;;;;4.97;4.37;;;;;;;;;;4937014;29;20207;-87
2021/10/24 05:07:36;;;;;;;4.23;2.97;;;;;;;;;;4937033;29;20260;-87
2021/10/24 05:10:04;;;;;;;2.50;2.30;;;;;;;;;;4937144;29;20191;-87
2021/10/24 05:12:32;;;;;;;2.70;2.17;;;;;;;;;;4937221;29;20203;-87
2021/10/24 05:14:59;;;;;;;7.07;6.00;;;;;;;;;;4937306;29;20199;-87
2021/10/24 05:17:26;;;;;;;10.97;9.83;;;;;;;;;;4937087;29;20257;-86
2021/10/24 05:19:53;;;;;;;23.17;21.03;;;;;;;;;;4936690;29;20227;-86
2021/10/24 05:22:21;;;;;;;13.67;12.30;;;;;;;;;;4936736;29;20210;-87
2021/10/24 05:24:50;;;;;;;12.37;11.27;;;;;;;;;;4937417;29;20576;-87
2021/10/24 05:27:17;;;;;;;8.77;7.70;;;;;;;;;;4937145;29;20271;-86
2021/10/24 05:29:45;;;;;;;2.43;2.23;;;;;;;;;;4936919;29;20313;-87
2021/10/24 05:32:12;;;;;;;3.07;2.77;;;;;;;;;;4936849;29;20236;-87
2021/10/24 05:34:39;;;;;;;39.07;35.77;;;;;;;;;;4936601;29;20203;-87
2021/10/24 05:37:13;;;;;;;5.93;5.33;;;;;;;;;;4936483;29;20297;-87
2021/10/24 05:39:40;;;;;;;4.83;4.43;;;;;;;;;;4936705;29;20210;-86
2021/10/24 05:42:09;;;;;;;16.87;15.27;;;;;;;;;;4936435;29;20290;-86
2021/10/24 05:44:36;;;;;;;15.17;12.13;;;;;;;;;;4936337;29;20261;-86
2021/10/24 05:47:04;;;;;;;12.33;9.83;;;;;;;;;;4936071;29;20281;-86
2021/10/24 05:49:32;;;;;;;10.13;5.83;;;;;;;;;;4935601;29;20199;-86
2021/10/24 05:51:59;;;;;;;9.47;8.53;;;;;;;;;;4935713;29;20745;-87
2021/10/24 05:54:26;;;;;;;4.83;4.43;;;;;;;;;;4935901;29;20266;-86
2021/10/24 05:56:54;;;;;;;6.17;5.57;;;;;;;;;;4936002;29;20273;-86
2021/10/24 05:59:23;;;;;;;5.97;3.87;;;;;;;;;;4936136;29;20206;-86
2021/10/24 06:01:50;;;;;;;2.57;2.37;;;;;;;;;;4935749;29;20262;-86
2021/10/24 06:04:18;;;;;;;7.43;5.17;;;;;;;;;;4935897;29;20202;-85
2021/10/24 06:06:45;;;;;;;7.40;6.70;;;;;;;;;;4935599;29;20278;-86
2021/10/24 06:09:12;;;;;;;6.17;5.33;;;;;;;;;;4935781;29;20229;-86
2021/10/24 06:11:47;;;;;;;104.97;58.40;;;;;;;;;;4935886;29;20214;-86
2021/10/24 06:14:14;;;;;;;36.63;24.00;;;;;;;;;;4935852;29;20209;-86
2021/10/24 06:16:43;;;;;;;7.80;6.73;;;;;;;;;;4935765;29;20640;-86
2021/10/24 06:19:11;;;;;;;4.40;3.13;;;;;;;;;;4935796;29;20199;-86
2021/10/24 06:21:38;;;;;;;3.90;3.47;;;;;;;;;;4935674;29;20702;-87
2021/10/24 06:24:05;;;;;;;3.07;2.77;;;;;;;;;;4935562;29;20202;-86
2021/10/24 06:26:33;;;;;;;3.20;2.87;;;;;;;;;;4944197;29;20207;-86
2021/10/24 06:29:00;;;;;;;5.10;4.70;;;;;;;;;;4935348;29;20209;-86
2021/10/24 06:31:27;;;;;;;5.40;4.80;;;;;;;;;;4935049;29;20468;-86
2021/10/24 06:33:57;;;;;;;7.67;6.10;;;;;;;;;;4935665;29;20214;-85
2021/10/24 06:36:24;;;;;;;6.27;5.10;;;;;;;;;;4935533;29;20277;-86
2021/10/24 06:38:52;;;;;;;10.03;7.33;;;;;;;;;;4935311;29;20675;-86
2021/10/24 06:41:19;;;;;;;4.17;3.80;;;;;;;;;;4942051;29;20261;-86
2021/10/24 06:43:46;;;;;;;4.53;3.47;;;;;;;;;;4954414;29;20669;-86
2021/10/24 06:46:13;;;;;;;9.83;6.80;;;;;;;;;;4954686;29;20642;-86
2021/10/24 06:48:41;;;;;;;6.63;4.70;;;;;;;;;;4954051;29;20209;-86
2021/10/24 06:51:09;;;;;;;4.40;4.10;;;;;;;;;;4948042;29;20668;-88
2021/10/24 06:53:37;;;;;;;6.07;5.47;;;;;;;;;;4938685;29;20210;-87
2021/10/24 06:56:04;;;;;;;14.53;11.53;;;;;;;;;;4942178;29;20723;-87
2021/10/24 06:58:31;;;;;;;26.40;22.17;;;;;;;;;;4952714;29;20232;-87
2021/10/24 07:00:58;;;;;;;14.50;13.07;;;;;;;;;;4951705;28;20229;-87
2021/10/24 07:03:26;;;;;;;8.13;6.83;;;;;;;;;;4953707;29;20205;-87
2021/10/24 07:05:53;;;;;;;6.03;5.53;;;;;;;;;;4950559;29;20202;-86
2021/10/24 07:08:22;;;;;;;5.03;4.53;;;;;;;;;;4954139;29;20281;-86
2021/10/24 07:10:50;;;;;;;4.60;4.20;;;;;;;;;;4954028;29;20202;-86
2021/10/24 07:13:17;;;;;;;8.17;6.20;;;;;;;;;;4954300;29;20229;-86
2021/10/24 07:15:44;;;;;;;5.07;4.37;;;;;;;;;;4954018;29;20197;-86
2021/10/24 07:18:12;;;;;;;5.67;4.10;;;;;;;;;;4954524;29;20285;-87
2021/10/24 07:20:39;;;;;;;3.90;3.30;;;;;;;;;;4953877;29;20321;-88
2021/10/24 07:23:06;;;;;;;5.50;4.70;;;;;;;;;;4954341;29;20200;-89
2021/10/24 07:25:35;;;;;;;4.00;3.60;;;;;;;;;;4954097;29;20201;-87
2021/10/24 07:28:03;;;;;;;4.50;3.87;;;;;;;;;;4954425;29;20200;-87
2021/10/24 07:30:30;;;;;;;6.33;4.93;;;;;;;;;;4954579;28;20268;-88
2021/10/24 07:32:57;;;;;;;6.27;4.67;;;;;;;;;;4954120;29;20689;-87
2021/10/24 07:35:25;;;;;;;11.67;7.80;;;;;;;;;;4954519;29;20288;-89
2021/10/24 07:37:52;;;;;;;7.97;7.23;;;;;;;;;;4954319;29;20232;-88
2021/10/24 07:40:21;;;;;;;8.00;4.23;;;;;;;;;;4954314;29;20221;-88
2021/10/24 07:42:49;;;;;;;4.13;3.30;;;;;;;;;;4954191;29;20667;-86
2021/10/24 07:45:17;;;;;;;4.20;3.73;;;;;;;;;;4954015;29;20208;-87
2021/10/24 07:47:45;;;;;;;4.17;3.77;;;;;;;;;;4954215;29;20209;-87
2021/10/24 07:50:13;;;;;;;6.07;3.40;;;;;;;;;;4954256;29;20202;-88
2021/10/24 07:52:40;;;;;;;3.00;2.70;;;;;;;;;;4954190;29;20232;-87
2021/10/24 07:55:08;;;;;;;2.63;2.43;;;;;;;;;;4954267;29;20288;-88
2021/10/24 07:57:35;;;;;;;3.30;3.00;;;;;;;;;;4954079;29;20202;-88
2021/10/24 08:00:05;;;;;;;7.33;3.73;;;;;;;;;;4953907;29;20292;-88
2021/10/24 08:02:32;;;;;;;8.40;6.47;;;;;;;;;;4942347;29;20230;-87
2021/10/24 08:05:01;;;;;;;3.43;2.97;;;;;;;;;;4947004;29;20205;-87
2021/10/24 08:07:29;;;;;;;2.90;2.70;;;;;;;;;;4954457;29;20269;-87
2021/10/24 08:09:56;;;;;;;21.87;8.10;;;;;;;;;;4954415;29;20638;-86
2021/10/24 08:12:24;;;;;;;5.27;2.80;;;;;;;;;;4954708;28;20284;-88
2021/10/24 08:14:51;;;;;;;2.53;2.33;;;;;;;;;;4957507;29;20198;-89
2021/10/24 08:17:20;;;;;;;5.50;3.10;;;;;;;;;;4957852;29;20238;-88
2021/10/24 08:19:47;;;;;;;3.90;3.50;;;;;;;;;;4957294;29;20561;-89
2021/10/24 08:22:18;;;;;;;5.13;2.97;;;;;;;;;;4957487;29;20222;-88
2021/10/24 08:24:45;;;;;;;4.87;4.40;;;;;;;;;;4957260;29;20194;-88
2021/10/24 08:27:12;;;;;;;4.13;3.60;;;;;;;;;;4957610;29;20576;-87
2021/10/24 08:29:40;;;;;;;3.43;2.40;;;;;;;;;;4956970;29;20241;-87
2021/10/24 08:32:10;;;;;;;2.73;2.47;;;;;;;;;;4957161;29;20209;-87
2021/10/24 08:34:40;;;;;;;4.37;3.93;;;;;;;;;;4956969;29;20289;-88
2021/10/24 08:37:08;;;;;;;2.70;2.50;;;;;;;;;;4957117;29;20266;-88
2021/10/24 08:39:35;;;;;;;4.27;3.43;;;;;;;;;;4957422;29;20690;-88
2021/10/24 08:42:04;;;;;;;3.77;3.47;;;;;;;;;;4957161;29;20710;-88
2021/10/24 08:44:31;;;;;;;3.83;2.20;;;;;;;;;;4957202;29;20265;-88
2021/10/24 08:46:59;;;;;;;3.63;2.73;;;;;;;;;;4957035;29;20202;-88
2021/10/24 08:49:26;;;;;;;4.43;2.67;;;;;;;;;;4956943;29;20199;-88
2021/10/24 08:51:55;;;;;;;4.13;3.10;;;;;;;;;;4956805;29;20256;-88
2021/10/24 08:54:25;;;;;;;5.30;4.63;;;;;;;;;;4957217;29;20202;-88
2021/10/24 08:56:52;;;;;;;3.03;2.73;;;;;;;;;;4956691;29;20205;-89
2021/10/24 08:59:20;;;;;;;4.17;3.03;;;;;;;;;;4956973;29;20288;-88
2021/10/24 09:01:51;;;;;;;6.37;2.93;;;;;;;;;;4956331;29;20774;-88
2021/10/24 09:04:19;;;;;;;3.27;2.97;;;;;;;;;;4956831;29;20186;-87
2021/10/24 09:06:48;;;;;;;2.10;1.93;;;;;;;;;;4956814;29;20237;-87
2021/10/24 09:09:18;;;;;;;2.50;1.50;;;;;;;;;;4956808;29;20201;-88
2021/10/24 09:11:54;;;;;;;4.80;4.30;;;;;;;;;;4956810;29;20644;-87
2021/10/24 09:14:43;;;;;;;6.60;5.53;;;;;;;;;;4956667;29;20202;-88
2021/10/24 09:17:12;;;;;;;3.50;3.07;;;;;;;;;;4956743;29;20659;-89
2021/10/24 09:19:42;;;;;;;6.63;3.27;;;;;;;;;;4956492;29;20319;-88
2021/10/24 09:22:21;;;;;;;3.43;2.50;;;;;;;;;;4942770;29;20234;-89
2021/10/24 09:25:13;;;;;;;4.30;2.63;;;;;;;;;;4936881;29;20222;-87
2021/10/24 09:27:46;;;;;;;2.57;2.30;;;;;;;;;;4937245;29;20199;-88
2021/10/24 09:30:15;;;;;;;3.47;2.90;;;;;;;;;;4936810;29;20331;-87
2021/10/24 09:32:52;;;;;;;4.87;2.97;;;;;;;;;;4937033;29;20199;-88
2021/10/24 09:35:23;;;;;;;2.67;2.30;;;;;;;;;;4937297;29;20190;-88
2021/10/24 09:37:50;;;;;;;4.10;2.20;;;;;;;;;;4944256;29;20300;-88
2021/10/24 09:40:24;;;;;;;2.53;2.30;;;;;;;;;;4956030;29;20771;-89
2021/10/24 09:43:13;;;;;;;11.07;9.33;;;;;;;;;;4956113;29;20214;-88
2021/10/24 09:45:41;;;;;;;2.30;2.07;;;;;;;;;;4955898;29;20205;-88
2021/10/24 09:48:11;;;;;;;2.27;2.07;;;;;;;;;;4956951;29;20198;-92
2021/10/24 09:50:46;;;;;;;5.93;3.03;;;;;;;;;;4956395;29;20195;-88
2021/10/24 09:53:15;;;;;;;2.90;1.90;;;;;;;;;;4956233;29;20202;-89
2021/10/24 09:55:46;;;;;;;3.60;2.00;;;;;;;;;;4955776;29;20243;-88
2021/10/24 09:58:14;;;;;;;4.10;2.40;;;;;;;;;;4956071;29;20571;-89
2021/10/24 10:00:43;;;;;;;3.40;2.10;;;;;;;;;;4955817;29;20202;-87
2021/10/24 10:03:10;;;;;;;3.30;2.10;;;;;;;;;;4955849;29;20264;-88
2021/10/24 10:05:38;;;;;;;2.33;1.73;;;;;;;;;;4955628;29;20214;-87
2021/10/24 10:08:07;;;;;;;2.90;1.93;;;;;;;;;;4955738;29;20677;-88
2021/10/24 10:10:35;;;;;;;2.20;1.80;;;;;;;;;;4955636;29;20208;-88
2021/10/24 10:13:08;;;;;;;2.70;1.93;;;;;;;;;;4955366;29;20225;-87
2021/10/24 10:15:37;;;;;;;4.53;2.50;;;;;;;;;;4955206;29;20195;-88
2021/10/24 10:18:04;;;;;;;2.63;2.00;;;;;;;;;;4955522;29;20202;-87
2021/10/24 10:20:33;;;;;;;3.30;2.07;;;;;;;;;;4955376;29;20203;-88
2021/10/24 10:23:06;;;;;;;3.53;3.23;;;;;;;;;;4955214;29;20325;-87
2021/10/24 10:25:34;;;;;;;2.20;2.00;;;;;;;;;;4955290;29;20249;-88
2021/10/24 10:28:02;;;;;;;4.93;2.70;;;;;;;;;;4955120;29;20200;-87
2021/10/24 10:30:38;;;;;;;3.27;2.20;;;;;;;;;;4954495;28;20280;-87
2021/10/24 10:33:31;;;;;;;7.73;3.57;;;;;;;;;;4954721;29;20224;-87
2021/10/24 10:35:59;;;;;;;6.40;3.90;;;;;;;;;;4955058;28;20205;-88
2021/10/24 10:38:34;;;;;;;4.40;2.13;;;;;;;;;;4955066;29;20232;-87
2021/10/24 10:41:02;;;;;;;2.30;2.03;;;;;;;;;;4955164;29;20216;-88
2021/10/24 10:43:29;;;;;;;2.33;1.87;;;;;;;;;;4955205;29;20228;-88
2021/10/24 10:45:58;;;;;;;3.03;2.57;;;;;;;;;;4954836;29;20280;-88
2021/10/24 10:48:38;;;;;;;2.83;2.30;;;;;;;;;;4955052;29;20202;-88
2021/10/24 10:51:15;;;;;;;3.13;2.23;;;;;;;;;;4955073;29;20216;-88
2021/10/24 10:54:01;;;;;;;2.43;1.90;;;;;;;;;;4954727;29;20201;-88
2021/10/24 10:56:37;;;;;;;4.47;1.70;;;;;;;;;;4954838;29;20208;-88
2021/10/24 10:59:07;;;;;;;2.93;2.53;;;;;;;;;;4954556;29;20712;-87
2021/10/24 11:01:37;;;;;;;2.87;2.67;;;;;;;;;;4955086;29;20224;-88
2021/10/24 11:04:17;;;;;;;2.33;2.13;;;;;;;;;;4955133;29;20682;-87
2021/10/24 11:06:56;;;;;;;4.30;3.00;;;;;;;;;;4954851;29;20240;-87
2021/10/24 11:09:45;;;;;;;9.30;1.97;;;;;;;;;;4955018;29;20186;-87
2021/10/24 11:12:31;;;;;;;2.43;1.60;;;;;;;;;;4954308;29;20671;-87
2021/10/24 11:15:15;;;;;;;2.93;2.40;;;;;;;;;;4954654;29;20203;-88
2021/10/24 11:17:45;;;;;;;4.93;1.90;;;;;;;;;;4935337;29;20201;-87
2021/10/24 11:20:42;;;;;;;4.47;3.10;;;;;;;;;;4935605;29;20747;-88
2021/10/24 11:23:16;;;;;;;2.53;1.87;;;;;;;;;;4935714;29;20240;-87
2021/10/24 11:25:43;;;;;;;3.87;2.53;;;;;;;;;;4935594;29;20635;-88
2021/10/24 11:28:14;;;;;;;3.80;2.60;;;;;;;;;;4935503;29;20236;-89
2021/10/24 11:30:42;;;;;;;4.27;3.50;;;;;;;;;;4935470;29;20244;-88
2021/10/24 11:33:10;;;;;;;3.27;2.40;;;;;;;;;;4935776;29;20607;-88
2021/10/24 11:35:38;;;;;;;3.77;2.77;;;;;;;;;;4935594;29;20209;-89
2021/10/24 11:38:10;;;;;;;5.23;3.93;;;;;;;;;;4941516;29;20227;-89
2021/10/24 11:40:40;;;;;;;5.37;3.00;;;;;;;;;;4954801;29;20187;-89
2021/10/24 11:43:10;;;;;;;2.87;2.57;;;;;;;;;;4954289;29;20280;-89
2021/10/24 11:45:40;;;;;;;2.93;2.63;;;;;;;;;;4954443;29;20207;-88
2021/10/24 11:48:10;;;;;;;3.17;2.87;;;;;;;;;;4955716;28;20210;-89
2021/10/24 11:50:55;;;;;;;3.00;2.60;;;;;;;;;;4958377;29;20253;-89
2021/10/24 11:53:30;;;;;;;4.20;2.70;;;;;;;;;;4958057;29;20190;-88
2021/10/24 11:55:59;;;;;;;2.93;2.30;;;;;;;;;;4958310;29;20636;-89
2021/10/24 11:58:37;;;;;;;2.50;2.30;;;;;;;;;;4958072;29;20199;-91
2021/10/24 12:01:10;;;;;;;3.30;2.70;;;;;;;;;;4958222;29;20194;-92
2021/10/24 12:03:39;;;;;;;3.73;3.07;;;;;;;;;;4957695;29;20244;-89
2021/10/24 12:06:06;;;;;;;6.97;3.63;;;;;;;;;;4957728;29;20242;-88
2021/10/24 12:08:46;;;;;;;4.57;2.20;;;;;;;;;;4957922;29;20213;-88
2021/10/24 12:11:16;;;;;;;15.43;6.07;;;;;;;;;;4958495;29;20190;-89
2021/10/24 12:13:44;;;;;;;4.23;3.60;;;;;;;;;;4957731;29;20206;-87
2021/10/24 12:16:33;;;;;;;3.80;2.50;;;;;;;;;;4958097;29;20576;-88
2021/10/24 12:19:16;;;;;;;3.27;1.93;;;;;;;;;;4957514;29;20197;-88
2021/10/24 12:22:02;;;;;;;4.03;3.00;;;;;;;;;;4957744;29;20261;-88
2021/10/24 12:24:43;;;;;;;7.17;2.10;;;;;;;;;;4957332;29;20205;-87
2021/10/24 12:27:30;;;;;;;3.03;1.63;;;;;;;;;;4957706;29;20196;-88
2021/10/24 12:30:03;;;;;;;2.30;2.10;;;;;;;;;;4957141;28;20245;-88
2021/10/24 12:32:31;;;;;;;5.90;4.00;;;;;;;;;;4957220;29;20190;-88
2021/10/24 12:35:04;;;;;;;4.20;2.30;;;;;;;;;;4957249;29;20201;-89
2021/10/24 12:37:32;;;;;;;3.30;2.10;;;;;;;;;;4957428;29;20194;-89
2021/10/24 12:40:22;;;;;;;4.40;2.60;;;;;;;;;;4954605;29;20226;-87
2021/10/24 12:43:03;;;;;;;9.10;5.53;;;;;;;;;;4956508;29;20749;-87
2021/10/24 12:45:31;;;;;;;9.03;6.90;;;;;;;;;;4956709;29;20206;-88
2021/10/24 12:47:59;;;;;;;4.20;3.67;;;;;;;;;;4956781;29;20237;-89
2021/10/24 12:50:32;;;;;;;4.03;3.23;;;;;;;;;;4957019;29;20675;-87
2021/10/24 12:53:03;;;;;;;17.10;13.00;;;;;;;;;;4957023;29;20634;-88
2021/10/24 12:55:33;;;;;;;6.10;4.87;;;;;;;;;;4957251;29;20197;-89
2021/10/24 12:58:00;;;;;;;8.63;6.63;;;;;;;;;;4957158;29;20200;-89
2021/10/24 13:00:28;;;;;;;6.77;6.07;;;;;;;;;;4955356;28;20203;-88
2021/10/24 13:02:55;;;;;;;10.77;7.13;;;;;;;;;;4956829;29;20276;-89
2021/10/24 13:05:23;;;;;;;9.43;7.03;;;;;;;;;;4956903;29;20281;-88
2021/10/24 13:07:50;;;;;;;4.43;2.57;;;;;;;;;;4956301;29;20220;-88
2021/10/24 13:10:17;;;;;;;3.23;2.10;;;;;;;;;;4956368;29;20213;-88
2021/10/24 13:12:46;;;;;;;6.13;3.53;;;;;;;;;;4956646;29;20202;-88
2021/10/24 13:15:13;;;;;;;3.90;3.27;;;;;;;;;;4956451;29;20707;-88
2021/10/24 13:17:40;;;;;;;6.07;4.53;;;;;;;;;;4956682;29;20198;-88
2021/10/24 13:20:10;;;;;;;4.23;3.83;;;;;;;;;;4956228;29;20208;-88
2021/10/24 13:22:54;;;;;;;4.40;3.17;;;;;;;;;;4956023;29;20236;-88
2021/10/24 13:25:22;;;;;;;4.40;3.40;;;;;;;;;;4956522;29;20197;-88
2021/10/24 13:27:50;;;;;;;5.23;3.27;;;;;;;;;;4956198;29;20664;-89
2021/10/24 13:30:18;;;;;;;5.90;3.20;;;;;;;;;;4955961;28;20237;-87
2021/10/24 13:32:45;;;;;;;4.23;3.03;;;;;;;;;;4956551;29;20213;-88
2021/10/24 13:35:12;;;;;;;3.00;2.73;;;;;;;;;;4956269;29;20205;-90
2021/10/24 13:37:39;;;;;;;6.10;4.47;;;;;;;;;;4956373;29;20291;-87
2021/10/24 13:40:08;;;;;;;6.47;3.83;;;;;;;;;;4955863;29;20201;-88
2021/10/24 13:42:35;;;;;;;5.00;2.90;;;;;;;;;;4956291;29;20707;-90
2021/10/24 13:45:04;;;;;;;3.30;2.17;;;;;;;;;;4956183;29;20209;-91
2021/10/24 13:47:31;;;;;;;4.70;3.00;;;;;;;;;;4956514;29;20206;-91
2021/10/24 13:49:59;;;;;;;7.60;3.03;;;;;;;;;;4956039;29;20194;-92
2021/10/24 13:52:26;;;;;;;5.30;3.43;;;;;;;;;;4955891;29;20750;-90
2021/10/24 13:54:53;;;;;;;4.50;2.70;;;;;;;;;;4955946;29;20202;-90
2021/10/24 13:57:21;;;;;;;3.20;2.33;;;;;;;;;;4956027;29;20636;-89
2021/10/24 13:59:49;;;;;;;4.73;4.00;;;;;;;;;;4955932;29;20200;-89
2021/10/24 14:02:18;;;;;;;14.30;8.30;;;;;;;;;;4955876;29;20561;-89
2021/10/24 14:04:46;;;;;;;6.27;4.00;;;;;;;;;;4955902;29;20208;-90
2021/10/24 14:07:13;;;;;;;3.97;3.67;;;;;;;;;;4955576;29;20203;-90
2021/10/24 14:09:42;;;;;;;5.80;3.70;;;;;;;;;;4955533;29;20204;-89
2021/10/24 14:12:10;;;;;;;9.83;3.63;;;;;;;;;;4955411;28;20202;-89
2021/10/24 14:14:37;;;;;;;3.47;2.80;;;;;;;;;;4955482;29;20288;-89
2021/10/24 14:17:05;;;;;;;4.63;3.07;;;;;;;;;;4955536;29;20241;-90
2021/10/24 14:19:34;;;;;;;3.10;2.80;;;;;;;;;;4955422;29;20209;-88
2021/10/24 14:22:01;;;;;;;2.70;2.50;;;;;;;;;;4955625;29;20289;-89
2021/10/24 14:24:28;;;;;;;6.43;2.90;;;;;;;;;;4955168;29;20233;-89
2021/10/24 14:26:55;;;;;;;2.50;2.30;;;;;;;;;;4955204;29;20197;-88
2021/10/24 14:29:22;;;;;;;1.97;1.87;;;;;;;;;;4955204;28;20202;-89
2021/10/24 14:31:50;;;;;;;4.17;2.73;;;;;;;;;;4955184;29;20189;-88
2021/10/24 14:34:17;;;;;;;2.60;2.30;;;;;;;;;;4955524;29;20582;-89
2021/10/24 14:36:46;;;;;;;5.63;2.80;;;;;;;;;;4943818;29;20214;-88
2021/10/24 14:39:13;;;;;;;3.17;2.30;;;;;;;;;;4935811;29;20206;-88
2021/10/24 14:41:41;;;;;;;3.00;2.20;;;;;;;;;;4936506;29;20222;-88
2021/10/24 14:44:08;;;;;;;3.87;2.60;;;;;;;;;;4936701;29;20234;-88
2021/10/24 14:46:35;;;;;;;9.70;6.10;;;;;;;;;;4954987;29;20229;-88
2021/10/24 14:49:02;;;;;;;6.37;3.53;;;;;;;;;;4948831;29;20226;-88
2021/10/24 14:51:30;;;;;;;5.93;3.93;;;;;;;;;;4935553;29;20775;-88
2021/10/24 14:53:59;;;;;;;5.77;4.33;;;;;;;;;;4935584;29;20236;-88